createdAt,value
2022-07-29T00:00:14.937Z,13.85
2022-07-29T00:02:41.838Z,13.85
2022-07-29T00:05:09.627Z,13.78
2022-07-29T00:07:36.462Z,13.75
2022-07-29T00:10:03.388Z,13.75
2022-07-29T00:12:30.116Z,13.73
2022-07-29T00:14:58.155Z,13.74
2022-07-29T00:17:26.270Z,13.70
2022-07-29T00:19:53.143Z,13.70
2022-07-29T00:22:21.040Z,13.76
2022-07-29T00:24:51.354Z,13.86
2022-07-29T00:27:18.844Z,13.90
2022-07-29T00:29:45.761Z,13.95
2022-07-29T00:32:12.801Z,13.94
2022-07-29T00:34:58.112Z,13.92
2022-07-29T00:37:24.927Z,14.02
2022-07-29T00:39:51.626Z,14.01
2022-07-29T00:42:18.802Z,14.01
2022-07-29T00:44:45.368Z,13.98
2022-07-29T00:47:12.832Z,13.91
2022-07-29T00:49:41.616Z,13.88
2022-07-29T00:52:10.221Z,13.79
2022-07-29T00:54:44.216Z,13.76
2022-07-29T00:57:12.430Z,13.76
2022-07-29T01:00:00.210Z,13.74
2022-07-29T01:02:28.193Z,13.80
2022-07-29T01:04:54.941Z,13.80
2022-07-29T01:07:21.743Z,13.76
2022-07-29T01:09:48.739Z,13.70
2022-07-29T01:12:19.356Z,13.68
2022-07-29T01:14:47.571Z,13.64
2022-07-29T01:17:52.563Z,13.60
2022-07-29T01:20:48.080Z,13.52
2022-07-29T01:23:14.774Z,13.47
2022-07-29T01:26:05.133Z,13.43
2022-07-29T01:29:07.654Z,13.36
2022-07-29T01:32:03.527Z,13.30
2022-07-29T01:36:49.830Z,13.28
2022-07-29T01:39:41.403Z,13.22
2022-07-29T01:42:08.167Z,13.21
2022-07-29T01:44:40.844Z,13.23
2022-07-29T01:47:15.831Z,13.27
2022-07-29T01:49:47.269Z,13.32
2022-07-29T01:52:32.294Z,13.31
2022-07-29T01:55:03.848Z,13.22
2022-07-29T01:57:35.041Z,13.19
2022-07-29T02:00:02.223Z,13.14
2022-07-29T02:02:31.363Z,13.07
2022-07-29T02:05:00.016Z,13.02
2022-07-29T02:07:30.571Z,12.98
2022-07-29T02:09:59.357Z,13.00
2022-07-29T02:12:27.131Z,12.97
2022-07-29T02:14:55.630Z,12.97
2022-07-29T02:17:27.282Z,12.99
2022-07-29T02:19:58.580Z,13.02
2022-07-29T02:22:27.747Z,12.98
2022-07-29T02:24:54.822Z,12.95
2022-07-29T02:27:22.031Z,12.94
2022-07-29T02:29:50.249Z,12.96
2022-07-29T02:32:17.764Z,12.96
2022-07-29T02:34:45.901Z,12.96
2022-07-29T02:37:13.666Z,13.02
2022-07-29T02:39:43.707Z,13.06
2022-07-29T02:42:15.847Z,13.18
2022-07-29T02:44:43.096Z,13.27
2022-07-29T02:47:41.481Z,13.42
2022-07-29T02:50:14.694Z,13.52
2022-07-29T02:53:04.424Z,13.62
2022-07-29T02:55:35.003Z,13.67
2022-07-29T02:58:33.037Z,13.71
2022-07-29T03:01:04.275Z,13.77
2022-07-29T03:03:38.593Z,13.86
2022-07-29T03:06:06.987Z,13.95
2022-07-29T03:08:35.262Z,14.08
2022-07-29T03:11:02.718Z,14.19
2022-07-29T03:13:31.330Z,14.25
2022-07-29T03:15:59.015Z,14.33
2022-07-29T03:18:26.879Z,14.37
2022-07-29T03:20:53.902Z,14.42
2022-07-29T03:23:23.749Z,14.44
2022-07-29T03:25:51.249Z,14.45
2022-07-29T03:28:18.034Z,14.43
2022-07-29T03:30:46.325Z,14.40
2022-07-29T03:33:13.717Z,14.34
2022-07-29T03:37:37.639Z,14.20
2022-07-29T03:40:08.605Z,14.18
2022-07-29T03:42:39.258Z,14.24
2022-07-29T03:45:13.611Z,14.21
2022-07-29T03:48:00.553Z,14.18
2022-07-29T03:50:38.387Z,14.14
2022-07-29T03:53:10.205Z,14.15
2022-07-29T03:55:48.562Z,14.14
2022-07-29T03:58:16.645Z,14.20
2022-07-29T04:00:45.098Z,14.28
2022-07-29T04:03:20.845Z,14.36
2022-07-29T04:05:59.748Z,14.39
2022-07-29T04:08:31.099Z,14.43
2022-07-29T04:11:18.426Z,14.52
2022-07-29T04:13:45.300Z,14.55
2022-07-29T04:16:14.680Z,14.59
2022-07-29T04:19:05.651Z,14.65
2022-07-29T04:21:41.895Z,14.69
2022-07-29T04:24:10.592Z,14.76
2022-07-29T04:26:40.298Z,14.83
2022-07-29T04:29:13.264Z,14.96
2022-07-29T04:32:07.034Z,15.03
2022-07-29T04:34:36.993Z,15.15
2022-07-29T04:37:06.295Z,15.24
2022-07-29T04:39:32.985Z,15.44
2022-07-29T04:41:59.711Z,15.60
2022-07-29T04:44:29.163Z,15.74
2022-07-29T04:46:56.179Z,15.94
2022-07-29T04:49:29.090Z,16.10
2022-07-29T04:51:56.181Z,16.39
2022-07-29T04:54:22.997Z,16.68
2022-07-29T04:56:49.858Z,17.33
2022-07-29T04:59:16.687Z,17.94
2022-07-29T05:01:43.978Z,18.60
2022-07-29T05:04:14.364Z,19.26
2022-07-29T05:06:41.294Z,19.86
2022-07-29T05:09:08.296Z,20.43
2022-07-29T05:11:34.956Z,20.98
2022-07-29T05:14:01.845Z,21.42
2022-07-29T05:16:29.019Z,21.93
2022-07-29T05:18:55.986Z,22.32
2022-07-29T05:21:22.672Z,22.64
2022-07-29T05:23:49.365Z,22.87
2022-07-29T05:26:16.363Z,23.02
2022-07-29T05:28:43.352Z,23.16
2022-07-29T05:31:10.608Z,23.36
2022-07-29T05:33:40.692Z,23.48
2022-07-29T05:38:38.835Z,23.66
2022-07-29T05:41:09.132Z,23.87
2022-07-29T05:43:37.891Z,24.16
2022-07-29T05:46:04.655Z,24.27
2022-07-29T05:48:31.281Z,24.46
2022-07-29T05:50:57.923Z,24.69
2022-07-29T05:53:24.819Z,25.04
2022-07-29T05:55:53.095Z,25.30
2022-07-29T05:58:19.930Z,25.34
2022-07-29T06:00:47.124Z,25.38
2022-07-29T06:03:13.891Z,25.36
2022-07-29T06:05:40.643Z,25.37
2022-07-29T06:08:08.367Z,25.43
2022-07-29T06:10:38.533Z,25.45
2022-07-29T06:13:05.633Z,25.59
2022-07-29T06:15:32.353Z,25.76
2022-07-29T06:18:01.390Z,25.83
2022-07-29T06:20:32.699Z,26.33
2022-07-29T06:23:00.264Z,26.69
2022-07-29T06:25:27.510Z,26.97
2022-07-29T06:27:54.502Z,27.02
2022-07-29T06:30:21.140Z,27.07
2022-07-29T06:32:48.300Z,27.01
2022-07-29T06:35:41.395Z,27.02
2022-07-29T06:38:02.051Z,27.12
2022-07-29T06:40:47.765Z,27.29
2022-07-29T06:43:14.468Z,27.12
2022-07-29T06:45:42.562Z,27.45
2022-07-29T06:48:10.616Z,27.50
2022-07-29T06:50:37.310Z,27.20
2022-07-29T06:53:04.912Z,26.63
2022-07-29T06:55:31.719Z,26.29
2022-07-29T06:57:58.327Z,26.13
2022-07-29T07:00:25.067Z,26.23
2022-07-29T07:02:51.848Z,26.41
2022-07-29T07:05:18.415Z,26.58
2022-07-29T07:07:44.987Z,26.61
2022-07-29T07:10:11.589Z,26.67
2022-07-29T07:12:38.172Z,26.50
2022-07-29T07:15:05.460Z,26.09
2022-07-29T07:17:32.099Z,26.27
2022-07-29T07:19:58.674Z,26.42
2022-07-29T07:22:25.237Z,26.67
2022-07-29T07:24:51.909Z,27.01
2022-07-29T07:27:18.571Z,27.19
2022-07-29T07:29:45.181Z,27.39
2022-07-29T07:32:12.273Z,27.37
2022-07-29T07:34:39.141Z,27.29
2022-07-29T07:39:37.427Z,27.50
2022-07-29T07:42:04.206Z,27.49
2022-07-29T07:44:30.844Z,27.72
2022-07-29T07:46:57.510Z,27.74
2022-07-29T07:49:30.468Z,27.90
2022-07-29T07:51:57.362Z,27.99
2022-07-29T07:54:24.249Z,28.38
2022-07-29T07:56:53.350Z,28.57
2022-07-29T07:59:20.195Z,28.87
2022-07-29T08:01:54.929Z,28.84
2022-07-29T08:04:27.538Z,28.65
2022-07-29T08:06:56.399Z,28.65
2022-07-29T08:09:29.651Z,28.77
2022-07-29T08:11:57.795Z,28.70
2022-07-29T08:14:24.488Z,28.69
2022-07-29T08:16:52.211Z,28.73
2022-07-29T08:19:18.912Z,28.83
2022-07-29T08:21:45.543Z,29.22
2022-07-29T08:24:30.771Z,29.49
2022-07-29T08:26:57.336Z,29.66
2022-07-29T08:29:24.089Z,29.62
2022-07-29T08:31:51.083Z,29.29
2022-07-29T08:34:17.950Z,29.11
2022-07-29T08:36:44.523Z,29.67
2022-07-29T08:39:16.857Z,29.63
2022-07-29T08:41:56.818Z,29.43
2022-07-29T08:44:29.733Z,29.16
2022-07-29T08:46:58.302Z,29.01
2022-07-29T08:49:25.163Z,29.04
2022-07-29T08:51:52.708Z,28.90
2022-07-29T08:54:19.735Z,28.86
2022-07-29T08:56:50.948Z,28.85
2022-07-29T08:59:22.171Z,28.80
2022-07-29T09:01:49.876Z,28.91
2022-07-29T09:04:19.732Z,29.32
2022-07-29T09:06:49.251Z,29.65
2022-07-29T09:09:16.174Z,29.53
2022-07-29T09:11:43.371Z,29.64
2022-07-29T09:14:13.348Z,30.04
2022-07-29T09:16:53.764Z,30.30
2022-07-29T09:19:29.474Z,30.17
2022-07-29T09:22:03.438Z,29.02
2022-07-29T09:24:39.906Z,29.12
2022-07-29T09:27:18.645Z,29.55
2022-07-29T09:29:45.275Z,29.49
2022-07-29T09:32:12.023Z,29.42
2022-07-29T09:34:38.741Z,29.42
2022-07-29T09:40:38.557Z,29.35
2022-07-29T09:43:14.729Z,29.43
2022-07-29T09:45:41.805Z,29.40
2022-07-29T09:48:17.012Z,29.03
2022-07-29T09:50:45.683Z,28.80
2022-07-29T09:53:12.477Z,28.99
2022-07-29T09:55:52.134Z,29.09
2022-07-29T09:58:20.414Z,29.29
2022-07-29T10:00:48.622Z,29.25
2022-07-29T10:03:16.759Z,28.98
2022-07-29T10:05:44.738Z,28.22
2022-07-29T10:08:13.486Z,28.33
2022-07-29T10:10:43.176Z,27.54
2022-07-29T10:13:15.683Z,27.29
2022-07-29T10:15:46.370Z,27.18
2022-07-29T10:18:14.945Z,27.32
2022-07-29T10:20:42.231Z,27.41
2022-07-29T10:23:10.205Z,27.46
2022-07-29T10:25:36.912Z,27.30
2022-07-29T10:28:03.878Z,26.74
2022-07-29T10:30:30.587Z,27.04
2022-07-29T10:33:35.554Z,27.01
2022-07-29T10:36:32.940Z,26.84
2022-07-29T10:39:15.537Z,26.67
2022-07-29T10:42:03.694Z,26.47
2022-07-29T10:44:30.889Z,26.59
2022-07-29T10:46:58.658Z,26.83
2022-07-29T10:49:31.111Z,26.94
2022-07-29T10:52:02.246Z,26.65
2022-07-29T10:54:36.336Z,26.60
2022-07-29T10:57:21.656Z,26.36
2022-07-29T11:00:02.028Z,25.78
2022-07-29T11:02:42.097Z,26.09
2022-07-29T11:05:20.609Z,26.22
2022-07-29T11:08:19.523Z,26.28
2022-07-29T11:10:49.120Z,26.37
2022-07-29T11:13:52.393Z,26.43
2022-07-29T11:16:23.096Z,26.36
2022-07-29T11:19:13.922Z,26.53
2022-07-29T11:21:54.308Z,26.33
2022-07-29T11:24:32.180Z,26.43
2022-07-29T11:27:11.300Z,26.29
2022-07-29T11:29:52.051Z,26.20
2022-07-29T11:32:23.160Z,26.19
2022-07-29T11:35:17.108Z,26.22
2022-07-29T11:41:38.343Z,26.43
2022-07-29T11:44:06.804Z,26.52
2022-07-29T11:46:50.541Z,26.52
2022-07-29T11:49:32.341Z,26.50
2022-07-29T11:52:02.846Z,26.24
2022-07-29T11:54:57.215Z,26.06
2022-07-29T11:57:22.602Z,26.07
2022-07-29T11:59:49.264Z,25.93
2022-07-29T12:02:36.934Z,25.84
2022-07-29T12:05:10.440Z,25.60
2022-07-29T12:07:39.401Z,25.47
2022-07-29T12:10:11.660Z,25.43
2022-07-29T12:12:53.337Z,25.47
2022-07-29T12:15:22.375Z,25.48
2022-07-29T12:17:49.435Z,25.40
2022-07-29T12:20:24.519Z,25.51
2022-07-29T12:22:52.084Z,25.57
2022-07-29T12:25:35.021Z,25.73
2022-07-29T12:28:03.785Z,25.95
2022-07-29T12:30:46.359Z,26.08
2022-07-29T12:33:15.238Z,26.06
2022-07-29T12:35:47.841Z,25.98
2022-07-29T12:38:22.115Z,25.94
2022-07-29T12:40:50.361Z,25.72
2022-07-29T12:43:20.083Z,25.58
2022-07-29T12:45:48.944Z,25.47
2022-07-29T12:48:17.011Z,25.37
2022-07-29T12:51:15.426Z,25.41
2022-07-29T12:53:42.515Z,25.50
2022-07-29T12:59:19.130Z,25.54
2022-07-29T13:01:49.044Z,25.65
2022-07-29T13:04:33.444Z,25.77
2022-07-29T13:07:04.917Z,25.82
2022-07-29T13:09:40.510Z,25.78
2022-07-29T13:12:09.376Z,25.70
2022-07-29T13:14:38.909Z,25.63
2022-07-29T13:17:14.470Z,25.57
2022-07-29T13:19:42.493Z,25.58
2022-07-29T13:22:15.014Z,25.55
2022-07-29T13:24:59.499Z,25.52
2022-07-29T13:27:28.700Z,25.43
2022-07-29T13:29:58.680Z,25.31
2022-07-29T13:32:28.640Z,25.23
2022-07-29T13:35:04.923Z,25.16
2022-07-29T13:37:35.127Z,25.12
2022-07-29T13:42:37.777Z,25.19
2022-07-29T13:45:05.610Z,25.22
2022-07-29T13:47:33.377Z,25.27
2022-07-29T13:50:06.224Z,25.32
2022-07-29T13:52:34.531Z,25.37
2022-07-29T13:55:01.676Z,25.48
2022-07-29T13:57:28.884Z,25.59
2022-07-29T13:59:56.266Z,25.63
2022-07-29T14:02:25.769Z,25.55
2022-07-29T14:04:56.816Z,25.49
2022-07-29T14:07:24.424Z,25.45
2022-07-29T14:09:51.785Z,25.42
2022-07-29T14:12:18.983Z,25.44
2022-07-29T14:14:47.379Z,25.51
2022-07-29T14:17:14.312Z,25.42
2022-07-29T14:19:41.089Z,25.56
2022-07-29T14:22:09.692Z,25.67
2022-07-29T14:24:37.945Z,25.72
2022-07-29T14:27:06.288Z,25.73
2022-07-29T14:29:37.414Z,25.67
2022-07-29T14:32:11.351Z,25.42
2022-07-29T14:34:39.587Z,25.33
2022-07-29T14:37:07.083Z,25.23
2022-07-29T14:39:39.295Z,25.21
2022-07-29T14:42:09.129Z,25.19
2022-07-29T14:44:35.946Z,25.07
2022-07-29T14:47:07.785Z,24.98
2022-07-29T14:49:35.185Z,25.04
2022-07-29T14:52:01.926Z,25.07
2022-07-29T14:54:28.627Z,25.05
2022-07-29T14:56:58.289Z,25.01
2022-07-29T14:59:26.060Z,25.00
2022-07-29T15:01:52.792Z,24.96
2022-07-29T15:04:19.529Z,24.97
2022-07-29T15:06:46.429Z,24.87
2022-07-29T15:09:13.888Z,24.73
2022-07-29T15:11:40.519Z,24.70
2022-07-29T15:14:07.348Z,24.58
2022-07-29T15:16:37.240Z,24.54
2022-07-29T15:19:04.929Z,24.53
2022-07-29T15:21:31.702Z,24.31
2022-07-29T15:23:58.306Z,24.32
2022-07-29T15:26:24.907Z,24.41
2022-07-29T15:28:52.100Z,24.17
2022-07-29T15:31:20.054Z,24.06
2022-07-29T15:33:46.775Z,24.07
2022-07-29T15:36:35.653Z,24.06
2022-07-29T15:39:00.573Z,24.12
2022-07-29T15:43:44.816Z,24.06
2022-07-29T15:46:33.525Z,23.99
2022-07-29T15:49:00.363Z,24.01
2022-07-29T15:51:27.912Z,23.94
2022-07-29T15:53:55.161Z,23.98
2022-07-29T15:56:21.803Z,23.98
2022-07-29T15:58:48.851Z,24.02
2022-07-29T16:01:15.562Z,24.06
2022-07-29T16:03:46.116Z,24.11
2022-07-29T16:06:13.422Z,24.06
2022-07-29T16:08:40.183Z,24.17
2022-07-29T16:11:06.816Z,24.13
2022-07-29T16:13:33.519Z,24.08
2022-07-29T16:16:02.622Z,24.08
2022-07-29T16:18:30.910Z,24.05
2022-07-29T16:20:58.060Z,24.02
2022-07-29T16:23:24.890Z,24.01
2022-07-29T16:25:59.594Z,24.01
2022-07-29T16:28:27.098Z,23.98
2022-07-29T16:30:53.697Z,23.97
2022-07-29T16:33:20.324Z,23.97
2022-07-29T16:35:46.939Z,23.97
2022-07-29T16:38:13.478Z,23.92
2022-07-29T16:40:40.263Z,23.73
2022-07-29T16:43:06.945Z,23.61
2022-07-29T16:45:45.360Z,23.57
2022-07-29T16:48:14.557Z,23.41
2022-07-29T16:50:43.205Z,23.25
2022-07-29T16:53:10.779Z,23.18
2022-07-29T16:55:37.849Z,23.15
2022-07-29T16:58:04.914Z,23.11
2022-07-29T17:00:31.952Z,23.00
2022-07-29T17:03:00.102Z,22.93
2022-07-29T17:05:27.948Z,22.82
2022-07-29T17:07:55.050Z,22.71
2022-07-29T17:10:22.422Z,22.63
2022-07-29T17:12:49.139Z,22.54
2022-07-29T17:15:18.657Z,22.47
2022-07-29T17:17:55.047Z,22.42
2022-07-29T17:20:23.563Z,22.40
2022-07-29T17:22:50.334Z,22.30
2022-07-29T17:25:20.446Z,22.32
2022-07-29T17:27:49.821Z,22.22
2022-07-29T17:30:17.303Z,22.19
2022-07-29T17:32:44.181Z,22.05
2022-07-29T17:35:34.241Z,21.99
2022-07-29T17:38:01.133Z,21.98
2022-07-29T17:40:28.052Z,21.93
2022-07-29T17:44:36.927Z,21.88
2022-07-29T17:47:04.997Z,21.80
2022-07-29T17:49:32.484Z,21.72
2022-07-29T17:52:01.073Z,21.69
2022-07-29T17:54:27.977Z,21.70
2022-07-29T17:56:54.734Z,21.62
2022-07-29T17:59:21.949Z,21.65
2022-07-29T18:01:48.599Z,21.58
2022-07-29T18:04:20.242Z,21.52
2022-07-29T18:06:46.902Z,21.52
2022-07-29T18:09:16.636Z,21.53
2022-07-29T18:11:44.529Z,21.47
2022-07-29T18:14:13.495Z,21.40
2022-07-29T18:16:40.738Z,21.32
2022-07-29T18:19:07.723Z,21.33
2022-07-29T18:21:43.777Z,21.26
2022-07-29T18:24:18.688Z,21.21
2022-07-29T18:26:45.395Z,21.18
2022-07-29T18:29:12.476Z,21.11
2022-07-29T18:31:41.201Z,21.01
2022-07-29T18:34:17.178Z,21.03
2022-07-29T18:36:43.963Z,20.95
2022-07-29T18:39:11.367Z,20.97
2022-07-29T18:41:50.250Z,20.92
2022-07-29T18:44:22.665Z,20.97
2022-07-29T18:46:51.324Z,20.96
2022-07-29T18:49:18.837Z,20.93
2022-07-29T18:51:45.563Z,20.90
2022-07-29T18:54:12.534Z,20.91
2022-07-29T18:56:39.372Z,20.90
2022-07-29T18:59:06.042Z,20.87
2022-07-29T19:01:32.955Z,20.84
2022-07-29T19:04:00.734Z,20.81
2022-07-29T19:09:11.013Z,20.78
2022-07-29T19:11:38.949Z,20.71
2022-07-29T19:14:06.497Z,20.66
2022-07-29T19:16:33.239Z,20.59
2022-07-29T19:19:01.174Z,20.61
2022-07-29T19:21:28.783Z,20.56
2022-07-29T19:24:06.461Z,20.52
2022-07-29T19:26:36.829Z,20.54
2022-07-29T19:29:04.053Z,20.43
2022-07-29T19:31:31.118Z,20.35
2022-07-29T19:33:57.784Z,20.37
2022-07-29T19:36:24.385Z,20.34
2022-07-29T19:38:51.143Z,20.33
2022-07-29T19:41:17.775Z,20.30
2022-07-29T19:45:46.331Z,20.33
2022-07-29T19:48:13.034Z,20.31
2022-07-29T19:53:33.915Z,20.17
2022-07-29T19:56:00.907Z,20.13
2022-07-29T19:58:28.112Z,20.12
2022-07-29T20:00:55.140Z,20.09
2022-07-29T20:03:22.231Z,20.12
2022-07-29T20:05:51.467Z,20.04
2022-07-29T20:08:18.983Z,20.01
2022-07-29T20:10:46.002Z,20.05
2022-07-29T20:13:13.232Z,20.03
2022-07-29T20:15:40.374Z,20.07
2022-07-29T20:18:07.276Z,20.08
2022-07-29T20:20:34.007Z,20.08
2022-07-29T20:23:02.377Z,20.05
2022-07-29T20:25:29.211Z,20.07
2022-07-29T20:27:56.090Z,20.03
2022-07-29T20:30:23.496Z,20.02
2022-07-29T20:32:50.838Z,19.95
2022-07-29T20:35:19.847Z,19.65
2022-07-29T20:37:51.435Z,19.45
2022-07-29T20:40:22.682Z,19.20
2022-07-29T20:42:49.501Z,18.90
2022-07-29T20:45:26.360Z,18.61
2022-07-29T20:48:01.936Z,18.36
2022-07-29T20:50:28.893Z,18.19
2022-07-29T20:52:57.938Z,18.06
2022-07-29T20:55:24.979Z,17.99
2022-07-29T20:57:51.647Z,17.86
2022-07-29T21:00:18.531Z,17.81
2022-07-29T21:02:45.301Z,17.80
2022-07-29T21:05:12.393Z,17.89
2022-07-29T21:07:39.292Z,17.90
2022-07-29T21:10:06.534Z,17.96
2022-07-29T21:12:33.923Z,17.97
2022-07-29T21:15:05.271Z,18.01
2022-07-29T21:17:36.383Z,18.06
2022-07-29T21:20:06.783Z,18.08
2022-07-29T21:22:33.466Z,18.12
2022-07-29T21:25:00.256Z,18.11
2022-07-29T21:27:48.382Z,18.12
2022-07-29T21:30:15.646Z,18.14
2022-07-29T21:32:42.598Z,18.13
2022-07-29T21:35:14.609Z,18.14
2022-07-29T21:37:54.276Z,18.15
2022-07-29T21:40:21.100Z,18.08
2022-07-29T21:42:47.722Z,18.00
2022-07-29T21:46:37.968Z,17.87
2022-07-29T21:49:05.029Z,17.88
2022-07-29T21:51:31.779Z,17.87
2022-07-29T21:53:58.471Z,17.90
2022-07-29T21:56:27.709Z,17.96
2022-07-29T21:58:55.811Z,17.98
2022-07-29T22:01:22.583Z,18.04
2022-07-29T22:03:49.341Z,18.05
2022-07-29T22:06:18.319Z,18.07
2022-07-29T22:08:45.824Z,18.14
2022-07-29T22:11:13.201Z,18.20
2022-07-29T22:13:40.176Z,18.20
2022-07-29T22:16:07.197Z,18.23
2022-07-29T22:18:34.157Z,18.24
2022-07-29T22:21:02.868Z,18.25
2022-07-29T22:23:32.157Z,18.24
2022-07-29T22:26:03.967Z,18.28
2022-07-29T22:28:30.678Z,18.27
2022-07-29T22:30:57.379Z,18.28
2022-07-29T22:33:24.147Z,18.31
2022-07-29T22:35:50.939Z,18.29
2022-07-29T22:38:18.272Z,18.26
2022-07-29T22:40:45.229Z,18.30
2022-07-29T22:43:12.043Z,18.34
2022-07-29T22:45:38.812Z,18.32
2022-07-29T22:48:06.144Z,18.34
2022-07-29T22:50:32.920Z,18.34
2022-07-29T22:52:59.624Z,18.35
2022-07-29T22:55:26.412Z,18.31
2022-07-29T22:57:53.095Z,18.25
2022-07-29T23:00:19.779Z,18.22
2022-07-29T23:02:47.620Z,18.17
2022-07-29T23:05:16.062Z,18.18
2022-07-29T23:07:43.240Z,18.19
2022-07-29T23:10:10.216Z,18.24
2022-07-29T23:12:36.923Z,18.19
2022-07-29T23:15:04.823Z,18.18
2022-07-29T23:17:31.954Z,18.17
2022-07-29T23:20:03.645Z,18.14
2022-07-29T23:22:30.260Z,18.07
2022-07-29T23:25:00.032Z,18.15
2022-07-29T23:27:26.766Z,18.23
2022-07-29T23:29:53.504Z,18.18
2022-07-29T23:32:20.192Z,18.16
2022-07-29T23:34:47.108Z,18.19
2022-07-29T23:37:23.758Z,18.18
2022-07-29T23:39:53.487Z,18.16
2022-07-29T23:42:22.057Z,18.14
2022-07-29T23:47:39.737Z,18.05
2022-07-29T23:50:07.793Z,18.11
2022-07-29T23:52:35.664Z,18.07
2022-07-29T23:55:36.531Z,18.03
2022-07-29T23:57:49.276Z,18.03
